createdAt,value
2018-07-10T00:03:20.819Z,34.89
2018-07-10T00:10:39.609Z,34.56
2018-07-10T00:13:11.344Z,35.37
2018-07-10T00:15:48.232Z,35.41
2018-07-10T00:18:20.645Z,35.15
2018-07-10T00:20:54.868Z,34.31
2018-07-10T00:23:28.347Z,34.99
2018-07-10T00:26:03.290Z,34.40
2018-07-10T00:28:38.153Z,34.18
2018-07-10T00:31:13.244Z,34.22
2018-07-10T00:33:46.665Z,34.23
2018-07-10T00:36:27.128Z,34.54
2018-07-10T00:39:06.340Z,34.64
2018-07-10T00:41:42.398Z,34.17
2018-07-10T00:44:15.991Z,34.60
2018-07-10T00:50:27.908Z,35.31
2018-07-10T00:53:01.718Z,35.13
2018-07-10T00:55:33.354Z,35.22
2018-07-10T00:58:05.729Z,35.32
2018-07-10T01:00:40.025Z,35.08
2018-07-10T01:03:14.393Z,35.43
2018-07-10T01:05:47.435Z,35.51
2018-07-10T01:08:19.473Z,35.49
2018-07-10T01:10:56.448Z,35.85
2018-07-10T01:13:29.576Z,35.81
2018-07-10T01:16:02.854Z,35.64
2018-07-10T01:18:42.119Z,35.10
2018-07-10T01:21:25.200Z,35.08
2018-07-10T01:24:04.614Z,34.70
2018-07-10T01:26:41.806Z,35.39
2018-07-10T01:29:23.765Z,36.70
2018-07-10T01:31:56.900Z,36.19
2018-07-10T01:34:32.448Z,37.19
2018-07-10T01:37:08.770Z,37.83
2018-07-10T01:39:42.518Z,37.35
2018-07-10T01:42:16.189Z,38.03
2018-07-10T01:44:49.323Z,37.93
2018-07-10T01:47:22.870Z,37.95
2018-07-10T01:49:55.122Z,38.79
2018-07-10T01:52:27.575Z,38.83
2018-07-10T01:55:00.306Z,38.05
2018-07-10T01:57:31.740Z,38.74
2018-07-10T02:00:04.648Z,38.83
2018-07-10T02:02:36.712Z,39.70
2018-07-10T02:05:09.131Z,39.60
2018-07-10T02:07:40.537Z,38.83
2018-07-10T02:10:11.916Z,38.76
2018-07-10T02:12:43.566Z,39.57
2018-07-10T02:15:16.215Z,39.21
2018-07-10T02:17:49.079Z,39.48
2018-07-10T02:20:20.498Z,39.16
2018-07-10T02:22:52.507Z,39.47
2018-07-10T02:25:23.992Z,39.61
2018-07-10T02:27:55.885Z,40.10
2018-07-10T02:30:27.580Z,39.18
2018-07-10T02:32:58.975Z,38.46
2018-07-10T02:35:30.130Z,39.74
2018-07-10T02:38:02.099Z,41.22
2018-07-10T02:40:34.248Z,41.79
2018-07-10T02:43:05.770Z,41.34
2018-07-10T02:45:36.944Z,41.52
2018-07-10T02:48:08.832Z,40.67
2018-07-10T02:50:42.980Z,40.62
2018-07-10T02:53:14.458Z,40.75
2018-07-10T02:55:47.946Z,40.72
2018-07-10T02:58:21.452Z,40.78
2018-07-10T03:00:53.628Z,40.25
2018-07-10T03:03:24.308Z,38.61
2018-07-10T03:05:56.738Z,38.89
2018-07-10T03:08:28.285Z,38.86
2018-07-10T03:11:01.708Z,39.61
2018-07-10T03:13:36.025Z,38.92
2018-07-10T03:16:08.465Z,38.78
2018-07-10T03:18:41.274Z,38.93
2018-07-10T03:21:11.823Z,38.76
2018-07-10T03:23:42.299Z,39.17
2018-07-10T03:26:15.104Z,38.21
2018-07-10T03:28:47.171Z,38.82
2018-07-10T03:31:19.556Z,38.05
2018-07-10T03:33:54.698Z,38.49
2018-07-10T03:36:28.769Z,38.08
2018-07-10T03:39:05.187Z,37.92
2018-07-10T03:41:35.984Z,38.40
2018-07-10T03:44:07.004Z,37.92
2018-07-10T03:46:41.216Z,37.68
2018-07-10T03:49:13.483Z,37.48
2018-07-10T03:51:46.350Z,38.05
2018-07-10T03:54:17.901Z,38.24
2018-07-10T03:56:50.209Z,37.69
2018-07-10T03:59:26.254Z,38.16
2018-07-10T04:01:57.787Z,38.57
2018-07-10T04:04:30.275Z,39.10
2018-07-10T04:07:02.674Z,38.67
2018-07-10T04:09:35.141Z,39.07
2018-07-10T04:12:07.320Z,37.97
2018-07-10T04:14:39.813Z,38.09
2018-07-10T04:17:12.350Z,38.79
2018-07-10T04:19:44.920Z,38.03
2018-07-10T04:22:17.334Z,38.07
2018-07-10T04:24:48.289Z,37.72
2018-07-10T04:27:29.001Z,37.86
2018-07-10T04:30:07.373Z,38.19
2018-07-10T04:32:39.681Z,38.25
2018-07-10T04:35:16.023Z,37.84
2018-07-10T04:37:50.220Z,38.43
2018-07-10T04:40:23.680Z,37.97
2018-07-10T04:43:00.853Z,37.87
2018-07-10T04:45:45.761Z,38.13
2018-07-10T04:48:33.344Z,38.31
2018-07-10T04:51:30.677Z,37.64
2018-07-10T04:54:14.872Z,37.82
2018-07-10T04:56:58.309Z,38.24
2018-07-10T04:59:30.697Z,38.26
2018-07-10T05:02:03.803Z,38.36
2018-07-10T05:04:36.371Z,38.05
2018-07-10T05:07:11.252Z,38.81
2018-07-10T05:09:45.444Z,38.81
2018-07-10T05:12:17.215Z,38.23
2018-07-10T05:14:52.843Z,38.28
2018-07-10T05:17:30.353Z,38.04
2018-07-10T05:20:03.609Z,38.27
2018-07-10T05:22:35.959Z,38.70
2018-07-10T05:25:19.276Z,38.21
2018-07-10T05:27:59.445Z,38.96
2018-07-10T05:33:22.924Z,38.84
2018-07-10T05:35:59.096Z,38.47
2018-07-10T05:38:42.461Z,38.50
2018-07-10T05:41:22.600Z,38.25
2018-07-10T05:43:55.878Z,38.13
2018-07-10T05:46:31.909Z,38.39
2018-07-10T05:49:06.600Z,37.59
2018-07-10T05:51:48.298Z,38.63
2018-07-10T05:54:23.261Z,38.83
2018-07-10T05:56:56.695Z,38.90
2018-07-10T05:59:31.157Z,38.08
2018-07-10T06:02:04.380Z,38.74
2018-07-10T06:04:39.613Z,39.12
2018-07-10T06:07:13.172Z,38.77
2018-07-10T06:09:47.912Z,39.18
2018-07-10T06:12:42.762Z,38.79
2018-07-10T06:15:17.590Z,37.76
2018-07-10T06:17:53.524Z,38.37
2018-07-10T06:20:29.374Z,38.18
2018-07-10T06:23:02.380Z,37.02
2018-07-10T06:25:36.123Z,36.51
2018-07-10T06:28:14.021Z,35.45
2018-07-10T06:30:50.378Z,34.84
2018-07-10T06:33:28.237Z,33.11
2018-07-10T06:36:32.334Z,30.85
2018-07-10T06:39:18.615Z,31.21
2018-07-10T06:42:08.705Z,30.91
2018-07-10T06:44:42.211Z,31.14
2018-07-10T06:47:34.097Z,30.57
2018-07-10T06:50:14.020Z,31.69
2018-07-10T06:53:07.754Z,30.39
2018-07-10T06:55:55.083Z,30.22
2018-07-10T06:58:50.613Z,30.96
2018-07-10T07:01:37.450Z,30.97
2018-07-10T07:04:12.653Z,30.47
2018-07-10T07:06:47.314Z,29.87
2018-07-10T07:09:23.270Z,29.43
2018-07-10T07:11:58.782Z,30.07
2018-07-10T07:14:40.416Z,30.26
2018-07-10T07:17:13.822Z,30.09
2018-07-10T07:19:50.881Z,30.30
2018-07-10T07:23:03.418Z,30.33
2018-07-10T07:25:37.242Z,29.39
2018-07-10T07:28:11.790Z,30.54
2018-07-10T07:30:47.852Z,30.58
2018-07-10T07:33:22.010Z,29.61
2018-07-10T07:35:57.069Z,29.53
2018-07-10T07:38:31.332Z,29.96
2018-07-10T07:42:12.428Z,29.86
2018-07-10T07:44:47.422Z,29.31
2018-07-10T07:50:34.688Z,29.72
2018-07-10T07:53:09.300Z,28.94
2018-07-10T07:55:46.390Z,28.17
2018-07-10T07:58:23.411Z,26.98
2018-07-10T08:00:58.911Z,26.63
2018-07-10T08:03:33.532Z,25.54
2018-07-10T08:06:15.691Z,24.46
2018-07-10T08:08:57.431Z,25.01
2018-07-10T08:11:41.583Z,25.50
2018-07-10T08:14:26.388Z,25.35
2018-07-10T08:17:07.088Z,25.00
2018-07-10T08:19:44.140Z,24.82
2018-07-10T08:22:27.255Z,23.64
2018-07-10T08:25:05.025Z,23.05
2018-07-10T08:27:40.427Z,23.53
2018-07-10T08:30:18.200Z,24.06
2018-07-10T08:32:55.372Z,23.01
2018-07-10T08:35:41.199Z,21.97
2018-07-10T08:38:29.254Z,21.39
2018-07-10T08:41:08.028Z,22.92
2018-07-10T08:43:45.153Z,22.34
2018-07-10T08:46:23.357Z,23.69
2018-07-10T08:49:01.987Z,23.25
2018-07-10T08:51:42.335Z,23.24
2018-07-10T08:54:25.892Z,23.64
2018-07-10T08:57:00.890Z,22.82
2018-07-10T08:59:40.154Z,23.37
2018-07-10T09:02:16.931Z,24.03
2018-07-10T09:04:52.274Z,23.27
2018-07-10T09:07:29.961Z,22.69
2018-07-10T09:10:05.276Z,22.53
2018-07-10T09:12:40.128Z,23.08
2018-07-10T09:15:18.351Z,22.62
2018-07-10T09:17:57.211Z,23.11
2018-07-10T09:20:38.066Z,22.72
2018-07-10T09:23:11.458Z,23.37
2018-07-10T09:25:51.226Z,22.47
2018-07-10T09:28:34.512Z,22.58
2018-07-10T09:31:11.838Z,22.49
2018-07-10T09:33:46.923Z,22.63
2018-07-10T09:36:31.628Z,21.68
2018-07-10T09:39:06.851Z,21.14
2018-07-10T09:41:43.616Z,21.07
2018-07-10T09:44:20.463Z,20.62
2018-07-10T09:46:58.786Z,20.95
2018-07-10T09:49:38.694Z,20.12
2018-07-10T09:52:29.633Z,20.30
2018-07-10T09:55:10.550Z,19.40
2018-07-10T09:57:48.118Z,19.42
2018-07-10T10:00:31.827Z,20.09
2018-07-10T10:03:29.493Z,21.33
2018-07-10T10:06:08.025Z,22.38
2018-07-10T10:08:48.722Z,23.60
2018-07-10T10:11:26.035Z,23.79
2018-07-10T10:13:59.284Z,24.47
2018-07-10T10:16:33.403Z,25.24
2018-07-10T10:19:09.658Z,25.23
2018-07-10T10:21:43.318Z,24.61
2018-07-10T10:24:19.024Z,25.29
2018-07-10T10:26:59.274Z,24.40
2018-07-10T10:29:36.272Z,23.91
2018-07-10T10:32:10.379Z,23.58
2018-07-10T10:34:44.759Z,22.82
2018-07-10T10:37:19.734Z,23.17
2018-07-10T10:39:54.714Z,23.36
2018-07-10T10:42:28.883Z,21.98
2018-07-10T10:45:06.197Z,21.75
2018-07-10T10:47:42.212Z,21.20
2018-07-10T10:50:17.996Z,21.28
2018-07-10T10:52:51.258Z,21.08
2018-07-10T10:55:25.778Z,20.79
2018-07-10T10:58:02.708Z,20.71
2018-07-10T11:00:37.412Z,19.49
2018-07-10T11:03:12.996Z,19.31
2018-07-10T11:05:47.635Z,19.03
2018-07-10T11:08:21.310Z,19.73
2018-07-10T12:44:18.941Z,21.95
2018-07-10T12:46:58.450Z,21.66
2018-07-10T12:49:37.176Z,21.46
2018-07-10T12:52:12.624Z,21.99
2018-07-10T12:54:54.214Z,21.49
2018-07-10T12:57:38.177Z,21.32
2018-07-10T13:00:34.457Z,22.37
2018-07-10T13:03:12.767Z,22.06
2018-07-10T13:05:56.986Z,23.12
2018-07-10T13:08:31.980Z,22.67
2018-07-10T13:11:07.613Z,22.48
2018-07-10T13:13:44.226Z,22.45
2018-07-10T13:16:23.794Z,23.08
2018-07-10T13:19:00.697Z,23.50
2018-07-10T13:21:43.257Z,23.46
2018-07-10T13:24:25.037Z,23.21
2018-07-10T13:27:10.113Z,23.20
2018-07-10T13:29:47.961Z,24.33
2018-07-10T13:36:31.433Z,24.37
2018-07-10T13:39:08.450Z,24.14
2018-07-10T13:41:48.628Z,24.20
2018-07-10T13:48:48.394Z,24.12
2018-07-10T13:54:54.967Z,25.12
2018-07-10T13:57:30.396Z,25.42
2018-07-10T14:00:07.191Z,25.09
2018-07-10T14:02:41.790Z,25.10
2018-07-10T14:05:20.915Z,25.26
2018-07-10T14:08:00.636Z,24.93
2018-07-10T14:10:33.550Z,24.28
2018-07-10T14:13:26.074Z,24.00
2018-07-10T14:16:09.266Z,22.62
2018-07-10T14:19:02.510Z,23.91
2018-07-10T14:21:43.515Z,24.11
2018-07-10T14:24:17.276Z,24.12
2018-07-10T14:26:51.381Z,23.30
2018-07-10T14:29:26.845Z,24.19
2018-07-10T14:32:03.435Z,24.05
2018-07-10T14:34:37.365Z,23.68
2018-07-10T14:39:52.513Z,23.46
2018-07-10T14:42:29.411Z,23.10
2018-07-10T14:45:08.206Z,24.01
2018-07-10T14:47:51.138Z,23.52
2018-07-10T14:50:26.813Z,23.26
2018-07-10T14:53:06.475Z,24.21
2018-07-10T14:55:43.629Z,23.68
2018-07-10T14:58:19.307Z,24.42
2018-07-10T15:04:07.294Z,24.21
2018-07-10T15:06:45.421Z,23.73
2018-07-10T15:09:20.411Z,24.13
2018-07-10T15:11:57.704Z,23.73
2018-07-10T15:14:31.766Z,22.66
2018-07-10T15:17:17.008Z,22.47
2018-07-10T15:19:50.736Z,23.27
2018-07-10T15:22:25.467Z,23.48
2018-07-10T15:24:59.146Z,23.59
2018-07-10T15:27:33.263Z,24.45
2018-07-10T15:30:07.370Z,24.43
2018-07-10T15:32:43.273Z,24.47
2018-07-10T15:35:19.908Z,24.46
2018-07-10T15:37:56.004Z,24.96
2018-07-10T15:40:29.409Z,24.48
2018-07-10T15:43:10.331Z,24.85
2018-07-10T15:45:44.308Z,24.46
2018-07-10T15:48:23.226Z,24.35
2018-07-10T15:51:01.941Z,25.57
2018-07-10T15:53:36.831Z,25.85
2018-07-10T15:56:10.804Z,26.25
2018-07-10T15:58:44.433Z,26.32
2018-07-10T16:01:18.093Z,25.77
2018-07-10T16:03:54.264Z,26.49
2018-07-10T16:06:30.432Z,26.56
2018-07-10T16:09:17.336Z,26.26
2018-07-10T16:12:06.480Z,25.20
2018-07-10T16:14:43.163Z,24.97
2018-07-10T16:17:24.124Z,25.61
2018-07-10T16:20:11.264Z,24.94
2018-07-10T16:22:44.796Z,23.75
2018-07-10T16:25:28.555Z,24.07
2018-07-10T16:28:16.955Z,24.36
2018-07-10T16:30:52.666Z,24.56
2018-07-10T16:33:32.678Z,25.33
2018-07-10T16:36:07.454Z,26.12
2018-07-10T16:38:42.690Z,26.01
2018-07-10T16:41:21.980Z,25.92
2018-07-10T16:43:56.332Z,26.24
2018-07-10T16:46:31.320Z,25.51
2018-07-10T16:49:13.300Z,26.46
2018-07-10T16:52:01.500Z,26.58
2018-07-10T16:54:37.101Z,26.59
2018-07-10T16:57:11.830Z,27.05
2018-07-10T16:59:44.058Z,26.87
2018-07-10T17:02:18.876Z,26.88
2018-07-10T17:04:52.570Z,26.57
2018-07-10T17:07:30.603Z,27.17
2018-07-10T17:10:04.514Z,28.11
2018-07-10T17:12:38.712Z,28.35
2018-07-10T17:15:14.981Z,29.20
2018-07-10T17:17:52.470Z,29.40
2018-07-10T17:20:28.411Z,30.57
2018-07-10T17:23:04.531Z,30.60
2018-07-10T17:25:43.416Z,29.22
2018-07-10T17:28:19.012Z,28.64
2018-07-10T17:30:56.181Z,29.35
2018-07-10T17:33:30.339Z,29.33
2018-07-10T17:36:06.247Z,30.11
2018-07-10T17:38:43.771Z,29.93
2018-07-10T17:41:22.845Z,29.98
2018-07-10T17:43:58.376Z,29.63
2018-07-10T17:46:34.250Z,29.41
2018-07-10T17:49:10.841Z,29.11
2018-07-10T17:51:59.543Z,29.21
2018-07-10T17:54:33.631Z,28.89
2018-07-10T17:57:16.066Z,28.08
2018-07-10T17:59:53.368Z,28.13
2018-07-10T18:02:36.485Z,28.31
2018-07-10T18:05:22.116Z,28.82
2018-07-10T18:07:59.393Z,28.16
2018-07-10T18:13:22.592Z,29.28
2018-07-10T18:16:12.192Z,29.48
2018-07-10T18:18:48.391Z,29.76
2018-07-10T18:23:33.479Z,29.74
2018-07-10T18:26:14.545Z,30.29
2018-07-10T18:28:48.606Z,30.94
2018-07-10T18:31:27.251Z,31.92
2018-07-10T18:34:04.627Z,32.21
2018-07-10T18:36:45.395Z,32.80
2018-07-10T18:39:26.444Z,33.65
2018-07-10T18:42:03.799Z,32.95
2018-07-10T18:44:43.659Z,33.34
2018-07-10T18:47:23.566Z,34.25
2018-07-10T18:50:13.832Z,33.78
2018-07-10T18:52:50.804Z,33.68
2018-07-10T18:55:41.284Z,34.19
2018-07-10T18:58:40.391Z,33.40
2018-07-10T19:01:36.556Z,33.09
2018-07-10T19:04:13.082Z,32.99
2018-07-10T19:06:51.121Z,34.14
2018-07-10T19:09:42.579Z,34.56
2018-07-10T19:12:20.807Z,34.25
2018-07-10T19:14:56.519Z,34.27
2018-07-10T19:17:33.275Z,34.59
2018-07-10T19:20:19.868Z,34.78
2018-07-10T19:23:01.573Z,34.82
2018-07-10T19:25:38.306Z,35.29
2018-07-10T19:28:17.667Z,35.53
2018-07-10T19:31:05.737Z,34.77
2018-07-10T19:33:43.657Z,34.71
2018-07-10T19:36:21.481Z,34.88
2018-07-10T19:38:58.207Z,35.44
2018-07-10T19:41:35.031Z,36.01
2018-07-10T19:44:09.643Z,35.62
2018-07-10T19:46:47.386Z,36.85
2018-07-10T19:49:24.466Z,37.18
2018-07-10T19:52:01.609Z,37.60
2018-07-10T19:54:52.571Z,38.62
2018-07-10T19:57:38.856Z,39.72
2018-07-10T20:00:15.451Z,40.90
2018-07-10T20:02:50.569Z,40.74
2018-07-10T20:05:24.032Z,40.71
2018-07-10T20:08:09.974Z,41.35
2018-07-10T20:10:47.732Z,42.72
2018-07-10T20:13:36.342Z,45.38
2018-07-10T20:16:20.525Z,48.13
2018-07-10T20:26:17.266Z,53.09
2018-07-10T20:29:09.710Z,54.08
2018-07-10T20:31:47.713Z,53.82
2018-07-10T20:34:29.577Z,54.94
2018-07-10T20:37:08.201Z,55.00
2018-07-10T20:39:43.542Z,54.31
2018-07-10T20:42:16.974Z,54.27
2018-07-10T20:48:59.383Z,53.71
2018-07-10T20:51:38.506Z,54.52
2018-07-10T20:54:23.453Z,53.20
2018-07-10T20:57:07.188Z,52.65
2018-07-10T20:59:50.822Z,51.27
2018-07-10T21:05:15.984Z,52.72
2018-07-10T21:07:58.586Z,52.50
2018-07-10T21:11:06.341Z,52.63
2018-07-10T21:13:58.379Z,52.27
2018-07-10T21:17:12.337Z,52.32
2018-07-10T21:20:05.972Z,53.52
2018-07-10T21:23:00.182Z,52.98
2018-07-10T21:25:42.453Z,52.87
2018-07-10T21:28:30.316Z,53.67
2018-07-10T21:31:17.149Z,53.28
2018-07-10T21:34:27.074Z,54.28
2018-07-10T21:37:09.918Z,54.30
2018-07-10T21:39:48.367Z,53.77
2018-07-10T21:42:34.718Z,54.12
2018-07-10T21:45:18.570Z,52.76
2018-07-10T21:48:02.233Z,53.79
2018-07-10T21:50:56.162Z,51.86
2018-07-10T21:53:29.293Z,53.34
2018-07-10T21:56:04.468Z,53.21
2018-07-10T21:58:38.721Z,52.45
2018-07-10T22:01:47.321Z,52.86
2018-07-10T22:04:24.054Z,54.29
2018-07-10T22:06:59.136Z,54.39
2018-07-10T22:09:37.889Z,53.80
2018-07-10T22:12:11.615Z,53.94
2018-07-10T22:14:46.223Z,53.54
2018-07-10T22:17:24.438Z,52.36
2018-07-10T22:19:59.871Z,51.98
2018-07-10T22:22:33.395Z,51.99
2018-07-10T22:25:09.478Z,52.18
2018-07-10T22:27:43.230Z,51.70
2018-07-10T22:30:25.570Z,52.31
2018-07-10T22:32:57.964Z,51.28
2018-07-10T22:35:30.745Z,51.60
2018-07-10T22:38:05.080Z,52.18
2018-07-10T22:40:37.832Z,52.52
2018-07-10T22:43:10.542Z,52.93
2018-07-10T22:45:43.199Z,52.38
2018-07-10T22:48:18.348Z,52.05
2018-07-10T22:50:54.222Z,51.77
2018-07-10T22:53:29.239Z,52.51
2018-07-10T22:56:09.620Z,51.44
2018-07-10T22:58:42.219Z,50.66
2018-07-10T23:01:14.677Z,50.65
2018-07-10T23:03:51.754Z,49.67
2018-07-10T23:06:25.105Z,50.50
2018-07-10T23:08:58.991Z,49.10
2018-07-10T23:16:22.801Z,48.16
2018-07-10T23:18:56.965Z,46.19
2018-07-10T23:21:29.391Z,46.24
2018-07-10T23:24:04.228Z,46.65
2018-07-10T23:26:39.835Z,46.90
2018-07-10T23:29:13.845Z,47.43
2018-07-10T23:31:50.229Z,47.74
2018-07-10T23:34:22.489Z,47.90
2018-07-10T23:36:59.696Z,47.65
2018-07-10T23:39:38.630Z,48.18
2018-07-10T23:42:11.669Z,47.99
2018-07-10T23:44:46.914Z,49.24
2018-07-10T23:47:31.152Z,49.97
2018-07-10T23:50:13.034Z,50.56
2018-07-10T23:53:56.732Z,50.62
2018-07-10T23:56:30.375Z,50.18
2018-07-10T23:59:06.035Z,50.13
